Bookmark and Share
Track history (hours):
 

Marin Sunshine

More information available from US FCC via Universal Licensing System and Coast Guard Vessel Documentation Center.

Last reported at 2013-Apr-10 19:04 UTC. Time now 2014-Apr-23 13:06 UTC.
Position N 38°04' W 122°02'.
Warning: this ship's position is years out of date!

MMSI: 367373280.

NotesDate/timePositionNaut miles runAvg speedWind from/ knotsBaromVisibWave heightAir tempDewpointWater temp
2013-Apr-10 19:04N 38°04' W 122°02'510.6
2013-Apr-10 18:33N 38°02' W 122°08'10 9.1
2013-Apr-10 17:28N 38°02' W 122°21'8 8.8
2013-Apr-10 16:33N 37°54' W 122°24'9 8.4
2013-Apr-10 15:32N 37°48' W 122°18'0 0.0
2013-Apr-09 23:31N 37°47' W 122°17'2 2.3
2013-Apr-09 22:32N 37°48' W 122°20'3 3.4
2013-Apr-09 21:32N 37°45' W 122°23'1 0.6
2013-Apr-09 20:25N 37°46' W 122°23'0 0.1
2013-Apr-09 19:30N 37°46' W 122°23'0 0.0
2013-Apr-09 18:32N 37°46' W 122°23'3 3.2
2013-Apr-09 17:33N 37°48' W 122°20'  
2013-Apr-05 22:29N 37°47' W 122°17'3 3.0
2013-Apr-05 21:33N 37°47' W 122°21'1 1.3
2013-Apr-05 20:33N 37°46' W 122°21'2 1.5
2013-Apr-05 19:33N 37°47' W 122°21'  
2013-Apr-03 04:12N 37°47' W 122°17'3 4.8
2013-Apr-03 03:29N 37°46' W 122°21'0 0.2
2013-Apr-03 02:33N 37°45' W 122°21'0 0.1
2013-Apr-03 01:32N 37°46' W 122°21'3 3.0
2013-Apr-03 00:29N 37°48' W 122°18'1 0.0
2013-Apr-01 00:20N 37°47' W 122°17'2 3.0
2013-Mar-31 23:33N 37°48' W 122°20'3 1.3
2013-Mar-31 21:05N 37°49' W 122°24'2 4.0
2013-Mar-31 20:33N 37°48' W 122°22'4 3.2
2013-Mar-31 19:26N 37°47' W 122°17'  

Dump ship's entire track history

sailing weather and tide predictions

Marin Sunshine — WDE5919 — position and weather